Terminal Aerodrome Forecast
Issued by NWS

Home | Current Version | Previous Version | Text Only | Print | Product List | Glossary On
Versions: 1 2 3 4 5 6 7 8 9 10 11 12 13 14 15 16 17 18 19 20 21 22 23 24 25 26 27 28 29 30 31 32 33 34 35 36 37 38 39 40 41 42 43 44 45 46 47 48 49 50
000
FTUS44 KHGX 250415 CCA
TAFIAH
TAF COR
KIAH 250415Z 2504/2606 26008G30KT 4SM -TSRA FEW008 BKN020CB
     FM250500 23008G20KT P6SM VCTS SCT025 BKN035CB
     FM250600 20012KT P6SM SCT250
     FM251100 20007KT P6SM VCSH SCT015 BKN030
     FM251500 30012KT P6SM FEW040
     FM260000 31004KT P6SM FEW250=

USA.gov is the U.S. government's official web portal to all federal, state and local government web resources and services.